Overview Statistics Trail Chart Weather Telemetry Raw packets
 

This is the latest recevied weather packets stored in our database for station/object IW1RID-3. If no packets are shown the sender has not sent any weather packets the latest 10 day(s).

<< 14 15 16 17 18 19 20 >>
Time Temp. Humidity Pressure Rain* Wind** Luminosity Snow
1788184462 30° C 60% 1073.5 hPa - - - -
1788183257 31.11° C 53% 1073.6 hPa - - - -
1788182052 30° C 57% 1073.6 hPa - - - -
1788180848 30° C 57% 1073.7 hPa - - - -
1788179643 29.44° C 63% 1073.8 hPa - - - -
1788178438 28.89° C 65% 1073.7 hPa - - - -
1788177233 28.89° C 66% 1073.7 hPa - - - -
1788176029 28.33° C 68% 1073.7 hPa - - - -
1788174823 28.33° C 69% 1073.8 hPa - - - -
1788173618 27.78° C 69% 1073.7 hPa - - - -
1788172414 27.78° C 69% 1073.7 hPa - - - -
1788171209 27.22° C 71% 1073.7 hPa - - - -
1788170004 27.22° C 69% 1073.7 hPa - - - -
1788168800 26.67° C 71% 1073.7 hPa - - - -
1788167595 26.67° C 72% 1073.6 hPa - - - -
1788166391 26.11° C 73% 1073.6 hPa - - - -
1788165185 25.56° C 74% 1073.6 hPa - - - -
1788163981 25° C 76% 1073.4 hPa - - - -
1788162776 24.44° C 65% 1073.6 hPa - - - -
1788161571 22.78° C 72% 1073.3 hPa - - - -
1788160367 22.22° C 76% 1073.1 hPa - - - -
1788159162 21.67° C 75% 1073.1 hPa - - - -
1788157956 20° C 82% 1073 hPa - - - -
1788156751 20° C 84% 1073 hPa - - - -
1788155547 19.44° C 84% 1072.9 hPa - - - -

* Rain since midnight (hover to see other rain measurements)
** Current wind speed in m/s (hover to see current wind gust speed)